sensor_id;sensor_type;location;lat;lon;timestamp;P1;durP1;ratioP1;P2;durP2;ratioP2
52468;SDS011;38381;53.688;10.776;2023-02-28T00:01:52;3.03;;;2.78;;
52468;SDS011;38381;53.688;10.776;2023-02-28T00:06:53;4.28;;;3.63;;
52468;SDS011;38381;53.688;10.776;2023-02-28T00:11:53;3.63;;;3.30;;
52468;SDS011;38381;53.688;10.776;2023-02-28T00:16:54;4.40;;;4.00;;
52468;SDS011;38381;53.688;10.776;2023-02-28T00:21:54;4.93;;;3.33;;
52468;SDS011;38381;53.688;10.776;2023-02-28T00:26:55;4.15;;;3.53;;
52468;SDS011;38381;53.688;10.776;2023-02-28T00:31:55;4.38;;;3.97;;
52468;SDS011;38381;53.688;10.776;2023-02-28T00:36:55;4.57;;;3.70;;
52468;SDS011;38381;53.688;10.776;2023-02-28T00:41:56;3.85;;;3.53;;
52468;SDS011;38381;53.688;10.776;2023-02-28T00:46:56;4.25;;;3.20;;
52468;SDS011;38381;53.688;10.776;2023-02-28T00:51:57;3.53;;;3.22;;
52468;SDS011;38381;53.688;10.776;2023-02-28T00:56:58;3.83;;;2.90;;
52468;SDS011;38381;53.688;10.776;2023-02-28T01:01:59;5.88;;;3.97;;
52468;SDS011;38381;53.688;10.776;2023-02-28T01:06:59;3.85;;;2.90;;
52468;SDS011;38381;53.688;10.776;2023-02-28T01:12:00;3.58;;;3.25;;
52468;SDS011;38381;53.688;10.776;2023-02-28T01:17:00;3.88;;;3.50;;
52468;SDS011;38381;53.688;10.776;2023-02-28T01:22:02;3.90;;;3.60;;
52468;SDS011;38381;53.688;10.776;2023-02-28T01:27:04;4.28;;;3.53;;
52468;SDS011;38381;53.688;10.776;2023-02-28T01:32:04;3.88;;;3.50;;
52468;SDS011;38381;53.688;10.776;2023-02-28T01:37:04;6.40;;;3.53;;
52468;SDS011;38381;53.688;10.776;2023-02-28T01:42:05;5.30;;;4.38;;
52468;SDS011;38381;53.688;10.776;2023-02-28T01:47:05;3.83;;;3.35;;
52468;SDS011;38381;53.688;10.776;2023-02-28T01:52:06;5.93;;;4.45;;
52468;SDS011;38381;53.688;10.776;2023-02-28T01:57:09;6.73;;;4.83;;
52468;SDS011;38381;53.688;10.776;2023-02-28T02:02:13;5.53;;;4.40;;
52468;SDS011;38381;53.688;10.776;2023-02-28T02:07:16;4.45;;;4.05;;
52468;SDS011;38381;53.688;10.776;2023-02-28T02:12:43;5.72;;;4.80;;
52468;SDS011;38381;53.688;10.776;2023-02-28T02:17:51;4.97;;;4.57;;
52468;SDS011;38381;53.688;10.776;2023-02-28T02:33:46;5.97;;;4.32;;
52468;SDS011;38381;53.688;10.776;2023-02-28T02:39:30;5.45;;;4.43;;
52468;SDS011;38381;53.688;10.776;2023-02-28T02:44:55;4.68;;;4.28;;
52468;SDS011;38381;53.688;10.776;2023-02-28T02:50:02;5.10;;;3.97;;
52468;SDS011;38381;53.688;10.776;2023-02-28T02:55:07;4.50;;;4.10;;
52468;SDS011;38381;53.688;10.776;2023-02-28T03:00:11;7.53;;;4.15;;
52468;SDS011;38381;53.688;10.776;2023-02-28T03:05:16;5.55;;;4.00;;
52468;SDS011;38381;53.688;10.776;2023-02-28T03:15:31;5.45;;;3.90;;
52468;SDS011;38381;53.688;10.776;2023-02-28T03:21:14;5.00;;;4.50;;
52468;SDS011;38381;53.688;10.776;2023-02-28T03:26:23;4.65;;;4.15;;
52468;SDS011;38381;53.688;10.776;2023-02-28T03:31:28;5.22;;;4.53;;
52468;SDS011;38381;53.688;10.776;2023-02-28T03:36:37;4.30;;;3.90;;
52468;SDS011;38381;53.688;10.776;2023-02-28T03:41:55;5.07;;;4.65;;
52468;SDS011;38381;53.688;10.776;2023-02-28T03:47:04;4.53;;;4.13;;
52468;SDS011;38381;53.688;10.776;2023-02-28T03:52:26;5.50;;;3.92;;
52468;SDS011;38381;53.688;10.776;2023-02-28T03:57:33;4.57;;;3.78;;
52468;SDS011;38381;53.688;10.776;2023-02-28T04:02:50;5.25;;;4.75;;
52468;SDS011;38381;53.688;10.776;2023-02-28T04:07:52;5.03;;;4.63;;
52468;SDS011;38381;53.688;10.776;2023-02-28T04:12:54;4.63;;;4.18;;
52468;SDS011;38381;53.688;10.776;2023-02-28T04:17:54;5.65;;;4.55;;
52468;SDS011;38381;53.688;10.776;2023-02-28T04:22:54;4.78;;;4.43;;
52468;SDS011;38381;53.688;10.776;2023-02-28T04:27:55;4.85;;;4.43;;
52468;SDS011;38381;53.688;10.776;2023-02-28T04:32:55;6.22;;;4.60;;
52468;SDS011;38381;53.688;10.776;2023-02-28T04:37:56;5.03;;;4.63;;
52468;SDS011;38381;53.688;10.776;2023-02-28T04:42:56;4.13;;;3.80;;
52468;SDS011;38381;53.688;10.776;2023-02-28T04:47:56;6.40;;;5.25;;
52468;SDS011;38381;53.688;10.776;2023-02-28T04:52:57;6.05;;;5.20;;
52468;SDS011;38381;53.688;10.776;2023-02-28T04:57:57;4.65;;;4.05;;
52468;SDS011;38381;53.688;10.776;2023-02-28T05:02:58;4.18;;;3.78;;
52468;SDS011;38381;53.688;10.776;2023-02-28T05:07:58;5.45;;;4.93;;
52468;SDS011;38381;53.688;10.776;2023-02-28T05:12:58;5.20;;;4.72;;
52468;SDS011;38381;53.688;10.776;2023-02-28T05:17:59;5.07;;;4.65;;
52468;SDS011;38381;53.688;10.776;2023-02-28T05:22:59;5.50;;;5.00;;
52468;SDS011;38381;53.688;10.776;2023-02-28T05:28:01;5.30;;;4.83;;
52468;SDS011;38381;53.688;10.776;2023-02-28T05:33:01;5.20;;;4.80;;
52468;SDS011;38381;53.688;10.776;2023-02-28T05:38:01;5.45;;;4.97;;
52468;SDS011;38381;53.688;10.776;2023-02-28T05:43:02;5.75;;;5.18;;
52468;SDS011;38381;53.688;10.776;2023-02-28T05:48:02;4.43;;;4.07;;
52468;SDS011;38381;53.688;10.776;2023-02-28T05:53:03;5.13;;;4.63;;
52468;SDS011;38381;53.688;10.776;2023-02-28T05:58:03;5.50;;;5.03;;
52468;SDS011;38381;53.688;10.776;2023-02-28T06:03:04;4.72;;;4.28;;
52468;SDS011;38381;53.688;10.776;2023-02-28T06:08:04;5.45;;;4.82;;
52468;SDS011;38381;53.688;10.776;2023-02-28T06:13:08;4.88;;;4.47;;
52468;SDS011;38381;53.688;10.776;2023-02-28T06:18:08;6.28;;;5.68;;
52468;SDS011;38381;53.688;10.776;2023-02-28T06:23:09;5.15;;;4.75;;
52468;SDS011;38381;53.688;10.776;2023-02-28T06:28:09;7.43;;;4.63;;
52468;SDS011;38381;53.688;10.776;2023-02-28T06:33:09;5.07;;;4.60;;
52468;SDS011;38381;53.688;10.776;2023-02-28T06:38:10;5.43;;;4.22;;
52468;SDS011;38381;53.688;10.776;2023-02-28T06:43:11;5.72;;;5.00;;
52468;SDS011;38381;53.688;10.776;2023-02-28T06:53:13;4.38;;;3.97;;
52468;SDS011;38381;53.688;10.776;2023-02-28T06:58:14;6.05;;;5.43;;
52468;SDS011;38381;53.688;10.776;2023-02-28T07:03:18;6.53;;;4.40;;
52468;SDS011;38381;53.688;10.776;2023-02-28T07:08:19;5.57;;;4.00;;
52468;SDS011;38381;53.688;10.776;2023-02-28T07:13:19;5.10;;;4.70;;
52468;SDS011;38381;53.688;10.776;2023-02-28T07:18:21;6.20;;;5.20;;
52468;SDS011;38381;53.688;10.776;2023-02-28T07:23:22;6.35;;;5.75;;
52468;SDS011;38381;53.688;10.776;2023-02-28T07:28:23;5.60;;;5.10;;
52468;SDS011;38381;53.688;10.776;2023-02-28T07:33:23;5.35;;;4.85;;
52468;SDS011;38381;53.688;10.776;2023-02-28T07:38:24;6.05;;;4.75;;
52468;SDS011;38381;53.688;10.776;2023-02-28T07:43:24;5.85;;;5.35;;
52468;SDS011;38381;53.688;10.776;2023-02-28T07:48:25;7.47;;;5.18;;
52468;SDS011;38381;53.688;10.776;2023-02-28T07:53:25;6.10;;;5.63;;
52468;SDS011;38381;53.688;10.776;2023-02-28T07:58:27;8.23;;;7.13;;
52468;SDS011;38381;53.688;10.776;2023-02-28T08:03:29;7.13;;;6.53;;
52468;SDS011;38381;53.688;10.776;2023-02-28T08:08:30;7.18;;;6.47;;
52468;SDS011;38381;53.688;10.776;2023-02-28T08:13:31;8.25;;;6.68;;
52468;SDS011;38381;53.688;10.776;2023-02-28T08:18:32;7.45;;;6.75;;
52468;SDS011;38381;53.688;10.776;2023-02-28T08:23:33;7.35;;;6.45;;
52468;SDS011;38381;53.688;10.776;2023-02-28T08:28:33;7.90;;;7.20;;
52468;SDS011;38381;53.688;10.776;2023-02-28T08:33:34;6.82;;;6.10;;
52468;SDS011;38381;53.688;10.776;2023-02-28T08:38:35;7.78;;;6.00;;
52468;SDS011;38381;53.688;10.776;2023-02-28T08:43:36;6.80;;;6.13;;
52468;SDS011;38381;53.688;10.776;2023-02-28T08:48:38;5.97;;;5.47;;
52468;SDS011;38381;53.688;10.776;2023-02-28T08:53:39;6.32;;;5.70;;
52468;SDS011;38381;53.688;10.776;2023-02-28T08:58:40;6.40;;;5.40;;
52468;SDS011;38381;53.688;10.776;2023-02-28T09:03:41;5.93;;;5.38;;
52468;SDS011;38381;53.688;10.776;2023-02-28T09:08:42;6.22;;;5.70;;
52468;SDS011;38381;53.688;10.776;2023-02-28T09:13:43;5.25;;;4.05;;
52468;SDS011;38381;53.688;10.776;2023-02-28T09:18:43;6.18;;;3.75;;
52468;SDS011;38381;53.688;10.776;2023-02-28T09:23:45;5.63;;;4.35;;
52468;SDS011;38381;53.688;10.776;2023-02-28T09:28:46;4.40;;;3.13;;
52468;SDS011;38381;53.688;10.776;2023-02-28T09:33:47;4.28;;;3.60;;
52468;SDS011;38381;53.688;10.776;2023-02-28T09:38:49;20.63;;;8.82;;
52468;SDS011;38381;53.688;10.776;2023-02-28T09:43:52;3.22;;;2.92;;
52468;SDS011;38381;53.688;10.776;2023-02-28T09:48:55;2.83;;;2.60;;
52468;SDS011;38381;53.688;10.776;2023-02-28T09:54:00;2.72;;;2.35;;
52468;SDS011;38381;53.688;10.776;2023-02-28T09:59:17;2.70;;;2.42;;
52468;SDS011;38381;53.688;10.776;2023-02-28T10:09:38;2.75;;;2.20;;
52468;SDS011;38381;53.688;10.776;2023-02-28T10:14:39;1.70;;;1.55;;
52468;SDS011;38381;53.688;10.776;2023-02-28T10:19:50;2.85;;;2.13;;
52468;SDS011;38381;53.688;10.776;2023-02-28T10:25:16;2.42;;;1.98;;
52468;SDS011;38381;53.688;10.776;2023-02-28T10:30:19;2.53;;;2.33;;
52468;SDS011;38381;53.688;10.776;2023-02-28T10:35:24;2.83;;;2.00;;
52468;SDS011;38381;53.688;10.776;2023-02-28T10:40:29;3.92;;;2.83;;
52468;SDS011;38381;53.688;10.776;2023-02-28T10:45:33;2.75;;;2.22;;
52468;SDS011;38381;53.688;10.776;2023-02-28T11:01:02;2.90;;;2.05;;
52468;SDS011;38381;53.688;10.776;2023-02-28T11:06:07;3.22;;;2.20;;
52468;SDS011;38381;53.688;10.776;2023-02-28T11:11:13;2.30;;;1.98;;
52468;SDS011;38381;53.688;10.776;2023-02-28T11:16:14;2.95;;;2.38;;
52468;SDS011;38381;53.688;10.776;2023-02-28T11:21:23;2.50;;;2.30;;
52468;SDS011;38381;53.688;10.776;2023-02-28T11:26:41;2.22;;;2.03;;
52468;SDS011;38381;53.688;10.776;2023-02-28T11:31:43;2.55;;;2.35;;
52468;SDS011;38381;53.688;10.776;2023-02-28T11:36:43;4.63;;;2.50;;
52468;SDS011;38381;53.688;10.776;2023-02-28T11:47:17;4.25;;;2.40;;
52468;SDS011;38381;53.688;10.776;2023-02-28T11:52:41;2.90;;;2.60;;
52468;SDS011;38381;53.688;10.776;2023-02-28T11:57:53;2.65;;;2.38;;
52468;SDS011;38381;53.688;10.776;2023-02-28T12:08:26;3.90;;;2.80;;
52468;SDS011;38381;53.688;10.776;2023-02-28T12:13:58;2.67;;;2.15;;
52468;SDS011;38381;53.688;10.776;2023-02-28T12:29:40;3.05;;;1.90;;
52468;SDS011;38381;53.688;10.776;2023-02-28T12:34:50;3.93;;;2.43;;
52468;SDS011;38381;53.688;10.776;2023-02-28T12:39:58;4.22;;;2.30;;
52468;SDS011;38381;53.688;10.776;2023-02-28T12:45:08;2.88;;;2.25;;
52468;SDS011;38381;53.688;10.776;2023-02-28T12:50:13;2.55;;;2.00;;
52468;SDS011;38381;53.688;10.776;2023-02-28T12:55:18;2.92;;;2.03;;
52468;SDS011;38381;53.688;10.776;2023-02-28T13:00:25;4.00;;;2.20;;
52468;SDS011;38381;53.688;10.776;2023-02-28T13:10:58;2.63;;;2.05;;
52468;SDS011;38381;53.688;10.776;2023-02-28T13:16:00;2.40;;;1.80;;
52468;SDS011;38381;53.688;10.776;2023-02-28T13:21:03;1.60;;;1.50;;
52468;SDS011;38381;53.688;10.776;2023-02-28T13:26:05;2.30;;;2.00;;
52468;SDS011;38381;53.688;10.776;2023-02-28T13:31:06;2.20;;;1.90;;
52468;SDS011;38381;53.688;10.776;2023-02-28T13:46:29;2.78;;;1.90;;
52468;SDS011;38381;53.688;10.776;2023-02-28T13:51:37;2.00;;;1.80;;
52468;SDS011;38381;53.688;10.776;2023-02-28T13:56:43;2.78;;;2.05;;
52468;SDS011;38381;53.688;10.776;2023-02-28T14:07:56;3.22;;;1.58;;
52468;SDS011;38381;53.688;10.776;2023-02-28T14:13:00;2.60;;;2.10;;
52468;SDS011;38381;53.688;10.776;2023-02-28T14:18:05;1.70;;;1.60;;
52468;SDS011;38381;53.688;10.776;2023-02-28T14:28:55;2.60;;;1.90;;
52468;SDS011;38381;53.688;10.776;2023-02-28T14:34:24;1.88;;;1.67;;
52468;SDS011;38381;53.688;10.776;2023-02-28T14:39:34;3.65;;;2.25;;
52468;SDS011;38381;53.688;10.776;2023-02-28T14:44:37;5.35;;;2.17;;
52468;SDS011;38381;53.688;10.776;2023-02-28T14:49:41;2.83;;;1.80;;
52468;SDS011;38381;53.688;10.776;2023-02-28T14:54:43;2.45;;;2.25;;
52468;SDS011;38381;53.688;10.776;2023-02-28T14:59:44;2.50;;;2.15;;
52468;SDS011;38381;53.688;10.776;2023-02-28T15:15:17;2.50;;;2.28;;
52468;SDS011;38381;53.688;10.776;2023-02-28T15:20:20;4.40;;;2.60;;
52468;SDS011;38381;53.688;10.776;2023-02-28T15:25:22;3.05;;;2.40;;
52468;SDS011;38381;53.688;10.776;2023-02-28T15:30:27;4.38;;;2.78;;
52468;SDS011;38381;53.688;10.776;2023-02-28T15:35:31;3.53;;;2.17;;
52468;SDS011;38381;53.688;10.776;2023-02-28T15:40:36;2.40;;;2.20;;
52468;SDS011;38381;53.688;10.776;2023-02-28T15:45:44;2.47;;;2.22;;
52468;SDS011;38381;53.688;10.776;2023-02-28T15:50:48;3.55;;;2.22;;
52468;SDS011;38381;53.688;10.776;2023-02-28T15:55:59;1.98;;;1.67;;
52468;SDS011;38381;53.688;10.776;2023-02-28T16:01:16;2.88;;;2.58;;
52468;SDS011;38381;53.688;10.776;2023-02-28T16:11:37;2.30;;;2.10;;
52468;SDS011;38381;53.688;10.776;2023-02-28T16:16:42;2.55;;;1.98;;
52468;SDS011;38381;53.688;10.776;2023-02-28T16:21:44;3.20;;;2.40;;
52468;SDS011;38381;53.688;10.776;2023-02-28T16:26:46;3.75;;;2.33;;
52468;SDS011;38381;53.688;10.776;2023-02-28T16:31:48;3.45;;;2.40;;
52468;SDS011;38381;53.688;10.776;2023-02-28T16:36:48;2.97;;;2.70;;
52468;SDS011;38381;53.688;10.776;2023-02-28T16:41:50;3.25;;;2.95;;
52468;SDS011;38381;53.688;10.776;2023-02-28T16:46:51;3.87;;;2.70;;
52468;SDS011;38381;53.688;10.776;2023-02-28T16:51:52;2.40;;;2.20;;
52468;SDS011;38381;53.688;10.776;2023-02-28T16:56:53;4.45;;;2.28;;
52468;SDS011;38381;53.688;10.776;2023-02-28T17:01:54;2.83;;;2.53;;
52468;SDS011;38381;53.688;10.776;2023-02-28T17:06:57;10.05;;;2.38;;
52468;SDS011;38381;53.688;10.776;2023-02-28T17:11:57;2.43;;;2.23;;
52468;SDS011;38381;53.688;10.776;2023-02-28T17:16:59;6.00;;;2.92;;
52468;SDS011;38381;53.688;10.776;2023-02-28T17:21:59;3.65;;;2.40;;
52468;SDS011;38381;53.688;10.776;2023-02-28T17:27:00;3.35;;;2.75;;
52468;SDS011;38381;53.688;10.776;2023-02-28T17:32:01;5.82;;;3.97;;
52468;SDS011;38381;53.688;10.776;2023-02-28T17:37:01;3.15;;;2.47;;
52468;SDS011;38381;53.688;10.776;2023-02-28T17:42:02;2.72;;;2.53;;
52468;SDS011;38381;53.688;10.776;2023-02-28T17:47:02;4.45;;;2.78;;
52468;SDS011;38381;53.688;10.776;2023-02-28T17:52:03;4.00;;;3.60;;
52468;SDS011;38381;53.688;10.776;2023-02-28T17:57:04;4.22;;;2.85;;
52468;SDS011;38381;53.688;10.776;2023-02-28T18:02:04;3.35;;;2.90;;
52468;SDS011;38381;53.688;10.776;2023-02-28T18:07:05;5.43;;;2.40;;
52468;SDS011;38381;53.688;10.776;2023-02-28T18:12:09;4.13;;;2.80;;
52468;SDS011;38381;53.688;10.776;2023-02-28T18:17:10;4.43;;;2.60;;
52468;SDS011;38381;53.688;10.776;2023-02-28T18:22:12;3.00;;;2.72;;
52468;SDS011;38381;53.688;10.776;2023-02-28T18:27:12;3.00;;;2.58;;
52468;SDS011;38381;53.688;10.776;2023-02-28T18:32:13;2.58;;;2.38;;
52468;SDS011;38381;53.688;10.776;2023-02-28T18:37:13;3.85;;;3.50;;
52468;SDS011;38381;53.688;10.776;2023-02-28T18:42:15;4.55;;;3.95;;
52468;SDS011;38381;53.688;10.776;2023-02-28T18:47:15;5.78;;;5.13;;
52468;SDS011;38381;53.688;10.776;2023-02-28T18:52:16;6.38;;;3.20;;
52468;SDS011;38381;53.688;10.776;2023-02-28T18:57:16;5.88;;;5.38;;
52468;SDS011;38381;53.688;10.776;2023-02-28T19:02:17;3.80;;;2.90;;
52468;SDS011;38381;53.688;10.776;2023-02-28T19:07:18;3.40;;;3.10;;
52468;SDS011;38381;53.688;10.776;2023-02-28T19:12:21;3.25;;;2.95;;
52468;SDS011;38381;53.688;10.776;2023-02-28T19:17:21;3.35;;;3.03;;
52468;SDS011;38381;53.688;10.776;2023-02-28T19:22:22;5.55;;;3.28;;
52468;SDS011;38381;53.688;10.776;2023-02-28T19:27:23;4.20;;;3.80;;
52468;SDS011;38381;53.688;10.776;2023-02-28T19:32:24;3.40;;;3.10;;
52468;SDS011;38381;53.688;10.776;2023-02-28T19:37:25;4.90;;;2.95;;
52468;SDS011;38381;53.688;10.776;2023-02-28T19:42:26;3.58;;;3.20;;
52468;SDS011;38381;53.688;10.776;2023-02-28T19:47:32;2.90;;;2.70;;
52468;SDS011;38381;53.688;10.776;2023-02-28T19:52:32;3.38;;;3.08;;
52468;SDS011;38381;53.688;10.776;2023-02-28T19:57:33;2.70;;;2.50;;
52468;SDS011;38381;53.688;10.776;2023-02-28T20:02:35;3.72;;;2.75;;
52468;SDS011;38381;53.688;10.776;2023-02-28T20:07:36;3.65;;;2.80;;
52468;SDS011;38381;53.688;10.776;2023-02-28T20:12:36;3.17;;;2.95;;
52468;SDS011;38381;53.688;10.776;2023-02-28T20:17:37;3.05;;;2.80;;
52468;SDS011;38381;53.688;10.776;2023-02-28T20:22:37;3.63;;;2.78;;
52468;SDS011;38381;53.688;10.776;2023-02-28T20:27:41;2.78;;;2.53;;
52468;SDS011;38381;53.688;10.776;2023-02-28T20:32:42;3.60;;;3.17;;
52468;SDS011;38381;53.688;10.776;2023-02-28T20:37:42;3.03;;;2.72;;
52468;SDS011;38381;53.688;10.776;2023-02-28T20:42:43;4.20;;;3.45;;
52468;SDS011;38381;53.688;10.776;2023-02-28T20:47:44;3.55;;;3.25;;
52468;SDS011;38381;53.688;10.776;2023-02-28T20:52:44;4.68;;;3.53;;
52468;SDS011;38381;53.688;10.776;2023-02-28T20:57:44;5.22;;;3.17;;
52468;SDS011;38381;53.688;10.776;2023-02-28T21:02:45;4.47;;;3.57;;
52468;SDS011;38381;53.688;10.776;2023-02-28T21:07:45;4.03;;;3.22;;
52468;SDS011;38381;53.688;10.776;2023-02-28T21:12:48;3.63;;;3.10;;
52468;SDS011;38381;53.688;10.776;2023-02-28T21:17:49;3.05;;;2.72;;
52468;SDS011;38381;53.688;10.776;2023-02-28T21:22:50;4.10;;;2.78;;
52468;SDS011;38381;53.688;10.776;2023-02-28T21:27:51;2.70;;;2.50;;
52468;SDS011;38381;53.688;10.776;2023-02-28T21:32:56;3.45;;;3.25;;
52468;SDS011;38381;53.688;10.776;2023-02-28T21:37:56;3.55;;;3.25;;
52468;SDS011;38381;53.688;10.776;2023-02-28T21:42:57;3.70;;;3.40;;
52468;SDS011;38381;53.688;10.776;2023-02-28T21:47:57;2.60;;;2.40;;
52468;SDS011;38381;53.688;10.776;2023-02-28T21:52:58;3.45;;;3.15;;
52468;SDS011;38381;53.688;10.776;2023-02-28T21:57:58;3.80;;;2.83;;
52468;SDS011;38381;53.688;10.776;2023-02-28T22:02:58;3.28;;;2.95;;
52468;SDS011;38381;53.688;10.776;2023-02-28T22:07:59;3.97;;;3.27;;
52468;SDS011;38381;53.688;10.776;2023-02-28T22:12:59;4.00;;;3.70;;
52468;SDS011;38381;53.688;10.776;2023-02-28T22:18:02;4.30;;;3.90;;
52468;SDS011;38381;53.688;10.776;2023-02-28T22:23:03;4.43;;;4.03;;
52468;SDS011;38381;53.688;10.776;2023-02-28T22:28:03;3.95;;;3.65;;
52468;SDS011;38381;53.688;10.776;2023-02-28T22:33:03;3.67;;;3.30;;
52468;SDS011;38381;53.688;10.776;2023-02-28T22:38:04;4.15;;;3.55;;
52468;SDS011;38381;53.688;10.776;2023-02-28T22:43:04;3.75;;;3.45;;
52468;SDS011;38381;53.688;10.776;2023-02-28T22:48:06;4.90;;;4.20;;
52468;SDS011;38381;53.688;10.776;2023-02-28T22:53:07;6.93;;;5.47;;
52468;SDS011;38381;53.688;10.776;2023-02-28T22:58:08;4.97;;;4.57;;
52468;SDS011;38381;53.688;10.776;2023-02-28T23:03:08;4.35;;;3.92;;
52468;SDS011;38381;53.688;10.776;2023-02-28T23:08:09;4.78;;;4.20;;
52468;SDS011;38381;53.688;10.776;2023-02-28T23:13:09;4.15;;;3.72;;
52468;SDS011;38381;53.688;10.776;2023-02-28T23:18:10;4.35;;;3.95;;
52468;SDS011;38381;53.688;10.776;2023-02-28T23:23:11;4.40;;;4.00;;
52468;SDS011;38381;53.688;10.776;2023-02-28T23:28:12;4.32;;;4.00;;
52468;SDS011;38381;53.688;10.776;2023-02-28T23:33:12;4.10;;;3.80;;
52468;SDS011;38381;53.688;10.776;2023-02-28T23:38:13;5.45;;;4.82;;
52468;SDS011;38381;53.688;10.776;2023-02-28T23:43:13;5.85;;;5.35;;
52468;SDS011;38381;53.688;10.776;2023-02-28T23:48:13;5.18;;;3.95;;
52468;SDS011;38381;53.688;10.776;2023-02-28T23:53:14;4.53;;;4.10;;
52468;SDS011;38381;53.688;10.776;2023-02-28T23:58:14;3.45;;;3.00;;
